createdAt,value
2023-04-18T00:00:39.932Z,10.35
2023-04-18T00:03:09.967Z,11.00
2023-04-18T00:05:40.602Z,14.43
2023-04-18T00:08:10.263Z,12.82
2023-04-18T00:10:39.969Z,12.88
2023-04-18T00:13:12.624Z,13.55
2023-04-18T00:15:44.013Z,11.18
2023-04-18T00:18:17.065Z,12.57
2023-04-18T00:20:47.163Z,12.75
2023-04-18T00:23:16.945Z,13.98
2023-04-18T00:25:46.602Z,13.25
2023-04-18T00:28:18.900Z,13.25
2023-04-18T00:30:49.135Z,11.75
2023-04-18T00:33:19.049Z,11.45
2023-04-18T00:35:48.708Z,13.20
2023-04-18T00:38:18.369Z,14.20
2023-04-18T00:40:48.075Z,13.20
2023-04-18T00:43:20.368Z,12.13
2023-04-18T00:45:50.118Z,15.55
2023-04-18T00:48:20.379Z,14.68
2023-04-18T00:50:50.142Z,12.85
2023-04-18T00:53:20.028Z,12.60
2023-04-18T00:55:50.251Z,12.35
2023-04-18T00:58:23.201Z,14.35
2023-04-18T01:00:54.913Z,13.65
2023-04-18T01:03:25.889Z,13.73
2023-04-18T01:05:57.652Z,13.73
2023-04-18T01:08:28.446Z,12.57
2023-04-18T01:11:00.935Z,14.55
2023-04-18T01:13:33.169Z,14.52
2023-04-18T01:16:02.911Z,13.35
2023-04-18T01:18:35.373Z,12.40
2023-04-18T01:21:06.305Z,14.43
2023-04-18T01:23:36.050Z,14.40
2023-04-18T01:26:08.496Z,15.05
2023-04-18T01:28:39.811Z,15.48
2023-04-18T01:31:10.959Z,17.52
2023-04-18T01:33:40.844Z,14.00
2023-04-18T01:36:10.954Z,15.93
2023-04-18T01:38:40.639Z,15.52
2023-04-18T01:41:12.886Z,13.13
2023-04-18T01:43:42.482Z,19.38
2023-04-18T01:46:12.436Z,16.85
2023-04-18T01:48:42.101Z,18.42
2023-04-18T01:51:11.923Z,18.02
2023-04-18T01:53:41.586Z,19.85
2023-04-18T01:56:14.695Z,21.52
2023-04-18T01:58:44.430Z,20.70
2023-04-18T02:01:15.869Z,23.08
2023-04-18T02:03:45.777Z,21.23
2023-04-18T02:06:15.824Z,24.30
2023-04-18T02:08:45.502Z,23.17
2023-04-18T02:11:17.707Z,23.80
2023-04-18T02:13:48.160Z,25.23
2023-04-18T02:16:17.959Z,18.98
2023-04-18T02:18:47.749Z,21.23
2023-04-18T02:21:17.457Z,23.42
2023-04-18T02:23:47.136Z,22.27
2023-04-18T02:26:19.479Z,23.63
2023-04-18T02:28:49.136Z,23.38
2023-04-18T02:31:20.305Z,20.90
2023-04-18T02:33:50.209Z,22.55
2023-04-18T02:36:20.022Z,20.17
2023-04-18T02:38:49.713Z,19.95
2023-04-18T02:41:25.957Z,24.25
2023-04-18T02:43:58.292Z,22.92
2023-04-18T02:46:28.231Z,21.67
2023-04-18T02:48:58.033Z,20.13
2023-04-18T02:51:28.237Z,21.25
2023-04-18T02:54:00.931Z,20.65
2023-04-18T02:56:43.073Z,19.25
2023-04-18T02:59:19.678Z,24.33
2023-04-18T03:02:07.875Z,28.52
2023-04-18T03:04:40.559Z,24.83
2023-04-18T03:07:11.751Z,24.90
2023-04-18T03:09:42.454Z,30.15
2023-04-18T03:12:23.294Z,28.20
2023-04-18T03:14:52.925Z,29.75
2023-04-18T03:17:23.888Z,29.00
2023-04-18T03:19:53.606Z,25.92
2023-04-18T03:22:23.719Z,28.38
2023-04-18T03:25:00.252Z,28.70
2023-04-18T03:27:46.806Z,26.35
2023-04-18T03:30:19.943Z,26.60
2023-04-18T03:32:56.345Z,26.77
2023-04-18T03:35:26.191Z,26.67
2023-04-18T03:37:55.947Z,27.42
2023-04-18T03:40:32.072Z,26.40
2023-04-18T03:43:10.881Z,25.88
2023-04-18T03:45:40.911Z,24.58
2023-04-18T03:48:10.559Z,25.55
2023-04-18T03:50:44.508Z,26.02
2023-04-18T03:53:14.560Z,24.33
2023-04-18T03:55:44.678Z,25.25
2023-04-18T03:58:23.868Z,25.40
2023-04-18T04:00:54.720Z,25.92
2023-04-18T04:03:25.324Z,27.63
2023-04-18T04:05:55.256Z,25.00
2023-04-18T04:08:27.666Z,23.05
2023-04-18T04:10:58.023Z,26.13
2023-04-18T04:13:30.401Z,21.83
2023-04-18T04:16:00.813Z,21.13
2023-04-18T04:18:31.794Z,22.63
2023-04-18T04:21:03.756Z,23.50
2023-04-18T04:23:46.626Z,22.55
2023-04-18T04:26:27.794Z,26.73
2023-04-18T04:29:13.976Z,22.70
2023-04-18T04:31:45.442Z,21.98
2023-04-18T04:34:17.601Z,26.35
2023-04-18T04:36:48.332Z,25.80
2023-04-18T04:39:18.130Z,22.73
2023-04-18T04:42:16.800Z,22.52
2023-04-18T04:45:00.328Z,21.90
2023-04-18T04:47:30.133Z,24.35
2023-04-18T04:49:59.812Z,23.35
2023-04-18T04:52:29.522Z,19.27
2023-04-18T04:54:59.226Z,20.95
2023-04-18T04:57:29.463Z,23.42
2023-04-18T05:00:01.693Z,26.13
2023-04-18T05:02:32.092Z,19.73
2023-04-18T05:05:02.630Z,28.45
2023-04-18T05:07:33.651Z,24.10
2023-04-18T05:10:03.284Z,19.15
2023-04-18T05:12:32.930Z,19.48
2023-04-18T05:15:05.603Z,21.73
2023-04-18T05:17:35.361Z,25.13
2023-04-18T05:20:05.071Z,21.50
2023-04-18T05:22:35.271Z,22.65
2023-04-18T05:25:05.495Z,23.73
2023-04-18T05:27:35.128Z,23.05
2023-04-18T05:30:08.435Z,19.85
2023-04-18T05:32:39.230Z,19.25
2023-04-18T05:35:09.781Z,21.50
2023-04-18T05:37:39.460Z,23.15
2023-04-18T05:40:12.220Z,22.90
2023-04-18T05:42:41.954Z,23.80
2023-04-18T05:45:14.823Z,18.95
2023-04-18T05:47:44.569Z,24.35
2023-04-18T05:50:14.262Z,18.17
2023-04-18T05:52:44.206Z,22.65
2023-04-18T05:55:14.107Z,22.17
2023-04-18T05:57:43.824Z,17.83
2023-04-18T06:00:17.578Z,28.67
2023-04-18T06:02:47.405Z,19.95
2023-04-18T06:05:17.375Z,16.83
2023-04-18T06:07:48.247Z,16.65
2023-04-18T06:10:17.972Z,18.73
2023-04-18T06:12:47.906Z,19.92
2023-04-18T06:15:20.399Z,20.55
2023-04-18T06:17:50.069Z,20.20
2023-04-18T06:20:19.763Z,19.73
2023-04-18T06:22:49.411Z,18.77
2023-04-18T06:25:19.589Z,21.95
2023-04-18T06:27:49.298Z,19.67
2023-04-18T06:30:22.339Z,18.10
2023-04-18T06:32:52.068Z,19.30
2023-04-18T06:35:21.845Z,19.88
2023-04-18T06:37:52.017Z,21.58
2023-04-18T06:40:21.837Z,19.23
2023-04-18T06:42:51.771Z,18.33
2023-04-18T06:45:24.526Z,21.23
2023-04-18T06:47:54.356Z,23.77
2023-04-18T06:50:24.036Z,18.65
2023-04-18T06:52:53.646Z,17.98
2023-04-18T06:55:23.548Z,17.63
2023-04-18T06:57:53.243Z,21.13
2023-04-18T07:00:25.964Z,14.70
2023-04-18T07:02:55.824Z,18.17
2023-04-18T07:05:25.720Z,18.45
2023-04-18T07:07:55.361Z,18.42
2023-04-18T07:10:25.126Z,15.95
2023-04-18T07:12:54.766Z,20.38
2023-04-18T07:15:26.988Z,16.38
2023-04-18T07:17:56.687Z,19.23
2023-04-18T07:20:26.392Z,17.60
2023-04-18T07:22:56.120Z,14.85
2023-04-18T07:25:25.818Z,17.83
2023-04-18T07:27:56.040Z,18.25
2023-04-18T07:30:28.406Z,16.30
2023-04-18T07:32:58.158Z,15.13
2023-04-18T07:35:27.810Z,15.63
2023-04-18T07:37:57.514Z,15.60
2023-04-18T07:40:27.246Z,13.43
2023-04-18T07:42:56.957Z,16.98
2023-04-18T07:45:29.243Z,28.10
2023-04-18T07:47:58.989Z,16.35
2023-04-18T07:50:28.695Z,13.07
2023-04-18T07:52:58.379Z,14.32
2023-04-18T07:55:28.089Z,16.63
2023-04-18T07:57:57.755Z,14.32
2023-04-18T08:00:32.788Z,16.00
2023-04-18T08:03:02.683Z,13.82
2023-04-18T08:05:32.621Z,13.23
2023-04-18T08:08:02.464Z,14.93
2023-04-18T08:10:32.621Z,14.70
2023-04-18T08:13:02.514Z,15.25
2023-04-18T08:15:35.046Z,16.25
2023-04-18T08:18:04.780Z,14.05
2023-04-18T08:20:35.412Z,13.82
2023-04-18T08:23:08.514Z,18.50
2023-04-18T08:25:39.342Z,14.23
2023-04-18T08:28:09.286Z,11.40
2023-04-18T08:30:42.532Z,13.68
2023-04-18T08:33:12.491Z,14.57
2023-04-18T08:35:42.172Z,13.95
2023-04-18T08:38:11.950Z,13.38
2023-04-18T08:40:41.828Z,10.32
2023-04-18T08:43:14.195Z,12.27
2023-04-18T08:45:48.505Z,12.48
2023-04-18T08:48:19.086Z,13.32
2023-04-18T08:50:48.778Z,13.00
2023-04-18T08:53:18.701Z,12.57
2023-04-18T08:55:50.708Z,13.75
2023-04-18T08:58:27.218Z,16.17
2023-04-18T09:00:59.465Z,13.20
2023-04-18T09:03:40.232Z,12.82
2023-04-18T09:06:16.473Z,12.07
2023-04-18T09:08:47.177Z,12.18
2023-04-18T09:11:24.172Z,11.18
2023-04-18T09:13:56.123Z,12.15
2023-04-18T09:16:31.460Z,12.23
2023-04-18T09:19:18.637Z,10.55
2023-04-18T09:21:49.040Z,12.18
2023-04-18T09:24:21.249Z,12.98
2023-04-18T09:26:54.091Z,14.73
2023-04-18T09:29:25.188Z,12.48
2023-04-18T09:32:05.973Z,11.48
2023-04-18T09:34:38.464Z,19.02
2023-04-18T09:37:10.462Z,14.02
2023-04-18T09:39:41.231Z,10.05
2023-04-18T09:42:11.296Z,10.63
2023-04-18T09:44:41.270Z,10.02
2023-04-18T09:47:13.546Z,10.75
2023-04-18T09:49:43.248Z,11.35
2023-04-18T09:52:12.994Z,9.43
2023-04-18T09:54:45.215Z,10.63
2023-04-18T09:57:17.302Z,10.85
2023-04-18T09:59:52.590Z,9.82
2023-04-18T10:02:25.895Z,10.85
2023-04-18T10:04:58.722Z,10.18
2023-04-18T10:07:30.043Z,9.85
2023-04-18T10:09:59.669Z,12.00
2023-04-18T10:12:29.660Z,8.52
2023-04-18T10:14:59.670Z,7.22
2023-04-18T10:17:32.213Z,8.05
2023-04-18T10:20:11.238Z,9.45
2023-04-18T10:22:40.958Z,12.65
2023-04-18T10:25:11.387Z,8.73
2023-04-18T10:28:00.146Z,11.82
2023-04-18T10:30:56.123Z,9.90
2023-04-18T10:33:32.232Z,9.63
2023-04-18T10:36:08.514Z,11.23
2023-04-18T10:38:45.309Z,9.15
2023-04-18T10:41:17.150Z,9.77
2023-04-18T10:44:13.445Z,7.07
2023-04-18T10:46:44.814Z,11.93
2023-04-18T10:49:24.464Z,9.63
2023-04-18T10:51:58.593Z,9.10
2023-04-18T10:54:35.854Z,9.68
2023-04-18T10:57:08.181Z,12.18
2023-04-18T10:59:41.179Z,8.70
2023-04-18T11:02:26.426Z,8.88
2023-04-18T11:05:00.145Z,10.45
2023-04-18T11:07:36.968Z,9.23
2023-04-18T11:10:07.000Z,9.15
2023-04-18T11:12:38.888Z,7.65
2023-04-18T11:15:14.616Z,12.05
2023-04-18T11:17:44.441Z,10.15
2023-04-18T11:20:17.520Z,6.90
2023-04-18T11:22:52.432Z,8.00
2023-04-18T11:25:24.859Z,8.00
2023-04-18T11:27:55.284Z,9.30
2023-04-18T11:30:25.084Z,8.77
2023-04-18T11:32:56.117Z,7.75
2023-04-18T11:35:28.920Z,8.10
2023-04-18T11:37:58.690Z,9.57
2023-04-18T11:40:28.604Z,10.48
2023-04-18T11:42:58.319Z,8.23
2023-04-18T11:45:28.223Z,8.15
2023-04-18T11:47:59.742Z,12.77
2023-04-18T11:50:38.043Z,15.43
2023-04-18T11:53:07.709Z,16.95
2023-04-18T11:55:37.370Z,19.15
2023-04-18T11:58:07.223Z,13.38
2023-04-18T12:00:38.765Z,14.95
2023-04-18T12:03:13.360Z,9.00
2023-04-18T12:05:48.159Z,6.63
2023-04-18T12:08:23.062Z,9.80
2023-04-18T12:10:54.616Z,12.38
2023-04-18T12:13:27.918Z,15.02
2023-04-18T12:15:57.585Z,24.25
2023-04-18T12:18:27.605Z,13.10
2023-04-18T12:21:02.164Z,7.32
2023-04-18T12:23:33.883Z,7.60
2023-04-18T12:26:04.980Z,10.00
2023-04-18T12:28:35.368Z,7.35
2023-04-18T12:31:06.085Z,8.73
2023-04-18T12:33:36.275Z,7.65
2023-04-18T12:36:09.831Z,7.22
2023-04-18T12:38:39.722Z,20.17
2023-04-18T12:41:09.452Z,15.38
2023-04-18T12:43:39.103Z,7.93
2023-04-18T12:46:08.868Z,6.72
2023-04-18T12:48:38.543Z,7.80
2023-04-18T12:51:10.882Z,8.82
2023-04-18T12:53:40.726Z,7.45
2023-04-18T12:56:10.999Z,6.43
2023-04-18T12:58:41.041Z,6.15
2023-04-18T13:01:10.711Z,7.38
2023-04-18T13:03:40.611Z,7.30
2023-04-18T13:06:12.967Z,8.25
2023-04-18T13:08:42.827Z,8.23
2023-04-18T13:11:12.720Z,8.82
2023-04-18T13:13:42.356Z,7.43
2023-04-18T13:16:12.528Z,7.70
2023-04-18T13:18:42.297Z,6.45
2023-04-18T13:21:14.568Z,6.40
2023-04-18T13:23:44.208Z,11.05
2023-04-18T13:26:13.937Z,8.43
2023-04-18T13:28:43.638Z,6.82
2023-04-18T13:31:14.515Z,8.73
2023-04-18T13:33:46.081Z,10.60
2023-04-18T13:36:18.308Z,6.63
2023-04-18T13:38:48.486Z,7.22
2023-04-18T13:41:18.319Z,8.00
2023-04-18T13:43:47.978Z,11.00
2023-04-18T13:46:17.756Z,7.78
2023-04-18T13:48:47.520Z,7.75
2023-04-18T13:51:19.800Z,7.80
2023-04-18T13:53:49.443Z,9.05
2023-04-18T13:56:19.070Z,10.02
2023-04-18T13:58:48.689Z,8.75
2023-04-18T14:01:19.163Z,9.30
2023-04-18T14:03:49.283Z,12.68
2023-04-18T14:06:21.624Z,11.35
2023-04-18T14:08:52.224Z,10.18
2023-04-18T14:11:22.859Z,9.35
2023-04-18T14:13:52.505Z,8.07
2023-04-18T14:16:22.274Z,19.75
2023-04-18T14:18:51.970Z,8.07
2023-04-18T14:21:24.224Z,8.88
2023-04-18T14:23:55.385Z,12.48
2023-04-18T14:26:25.686Z,7.78
2023-04-18T14:28:55.326Z,7.82
2023-04-18T14:31:25.118Z,7.78
2023-04-18T14:33:55.269Z,8.52
2023-04-18T14:36:27.828Z,8.85
2023-04-18T14:38:57.577Z,10.60
2023-04-18T14:41:27.516Z,14.43
2023-04-18T14:43:57.231Z,13.93
2023-04-18T14:46:28.455Z,29.98
2023-04-18T14:48:58.428Z,17.35
2023-04-18T14:51:31.361Z,19.98
2023-04-18T14:54:01.301Z,18.50
2023-04-18T15:10:25.198Z,11.73
2023-04-18T15:12:54.897Z,11.27
2023-04-18T15:15:25.357Z,15.20
2023-04-18T15:17:55.201Z,9.88
2023-04-18T15:20:25.411Z,13.98
2023-04-18T15:22:55.108Z,10.88
2023-04-18T15:25:27.567Z,12.75
2023-04-18T15:27:57.407Z,9.15
2023-04-18T15:30:27.600Z,11.27
2023-04-18T15:32:57.426Z,11.98
2023-04-18T15:35:27.443Z,15.15
2023-04-18T15:37:57.642Z,13.15
2023-04-18T15:40:30.539Z,11.13
2023-04-18T15:43:00.364Z,18.63
2023-04-18T15:45:30.062Z,12.75
2023-04-18T15:47:59.829Z,12.95
2023-04-18T15:50:32.124Z,11.73
2023-04-18T15:53:03.061Z,13.13
2023-04-18T15:55:35.475Z,11.48
2023-04-18T15:58:05.338Z,11.88
2023-04-18T16:00:35.033Z,9.98
2023-04-18T16:03:04.951Z,13.38
2023-04-18T16:05:34.905Z,12.32
2023-04-18T16:08:04.975Z,14.60
2023-04-18T16:10:37.440Z,13.10
2023-04-18T16:13:07.353Z,10.02
2023-04-18T16:15:41.611Z,12.38
2023-04-18T16:18:11.467Z,11.27
2023-04-18T16:20:41.126Z,9.48
2023-04-18T16:23:10.873Z,12.60
2023-04-18T16:25:43.137Z,11.73
2023-04-18T16:28:12.844Z,10.18
2023-04-18T16:30:43.959Z,13.73
2023-04-18T16:33:13.771Z,12.35
2023-04-18T16:35:43.632Z,19.10
2023-04-18T16:38:13.301Z,10.70
2023-04-18T16:40:45.522Z,16.58
2023-04-18T16:43:15.196Z,13.35
2023-04-18T16:45:44.882Z,13.13
2023-04-18T16:48:14.549Z,13.20
2023-04-18T16:50:45.759Z,13.20
2023-04-18T16:53:15.458Z,13.93
2023-04-18T16:55:47.773Z,10.88
2023-04-18T16:58:17.434Z,13.52
2023-04-18T17:00:47.506Z,11.68
2023-04-18T17:03:17.254Z,10.52
2023-04-18T17:05:47.032Z,11.52
2023-04-18T17:08:16.761Z,13.57
2023-04-18T17:10:49.122Z,12.52
2023-04-18T17:13:18.822Z,10.52
2023-04-18T17:15:48.582Z,12.20
2023-04-18T17:18:18.310Z,13.30
2023-04-18T17:20:48.000Z,14.23
2023-04-18T17:23:17.644Z,12.55
2023-04-18T17:25:50.015Z,14.30
2023-04-18T17:28:19.740Z,10.18
2023-04-18T17:30:50.426Z,11.50
2023-04-18T17:33:20.231Z,12.73
2023-04-18T17:35:50.493Z,14.98
2023-04-18T17:38:20.177Z,13.27
2023-04-18T17:41:01.606Z,12.65
2023-04-18T17:43:31.644Z,14.57
2023-04-18T17:46:03.933Z,12.52
2023-04-18T17:48:33.671Z,87.53
2023-04-18T17:51:03.709Z,66.10
2023-04-18T17:53:33.531Z,33.05
2023-04-18T17:56:06.389Z,23.48
2023-04-18T17:58:36.303Z,12.27
2023-04-18T18:01:06.471Z,14.80
2023-04-18T18:03:36.470Z,11.13
2023-04-18T18:06:06.560Z,12.50
2023-04-18T18:08:36.212Z,14.68
2023-04-18T18:11:08.862Z,11.65
2023-04-18T18:13:39.056Z,11.38
2023-04-18T18:16:09.646Z,13.27
2023-04-18T18:18:39.647Z,13.35
2023-04-18T18:21:09.463Z,15.80
2023-04-18T18:23:39.206Z,17.92
2023-04-18T18:26:11.663Z,14.13
2023-04-18T18:28:41.409Z,13.35
2023-04-18T18:31:11.125Z,12.40
2023-04-18T18:33:40.937Z,15.18
2023-04-18T18:36:10.711Z,15.23
2023-04-18T18:38:40.382Z,15.48
2023-04-18T18:41:12.686Z,12.05
2023-04-18T18:43:42.887Z,11.57
2023-04-18T18:46:12.623Z,14.38
2023-04-18T18:48:42.366Z,11.40
2023-04-18T18:51:12.333Z,14.75
2023-04-18T18:53:42.044Z,12.85
2023-04-18T18:56:14.583Z,12.68
2023-04-18T18:58:45.034Z,11.63
2023-04-18T19:01:14.803Z,11.85
2023-04-18T19:03:44.854Z,10.45
2023-04-18T19:06:15.029Z,14.52
2023-04-18T19:08:44.956Z,12.15
2023-04-18T19:11:18.583Z,11.00
2023-04-18T19:13:48.397Z,10.27
2023-04-18T19:16:18.337Z,13.88
2023-04-18T19:18:50.747Z,11.20
2023-04-18T19:21:20.762Z,11.05
2023-04-18T19:23:50.602Z,11.77
2023-04-18T19:26:23.241Z,17.63
2023-04-18T19:28:53.096Z,10.95
2023-04-18T19:31:22.928Z,11.15
2023-04-18T19:33:52.907Z,13.35
2023-04-18T19:36:22.708Z,9.98
2023-04-18T19:38:52.648Z,15.38
2023-04-18T19:41:25.061Z,10.18
2023-04-18T19:43:55.367Z,11.20
2023-04-18T19:46:25.149Z,11.07
2023-04-18T19:48:54.968Z,9.48
2023-04-18T19:51:24.871Z,10.77
2023-04-18T19:53:55.577Z,9.57
2023-04-18T19:56:28.072Z,10.45
2023-04-18T19:58:58.206Z,7.85
2023-04-18T20:01:28.128Z,8.30
2023-04-18T20:04:00.601Z,8.57
2023-04-18T20:06:31.115Z,5.93
2023-04-18T20:09:00.999Z,5.50
2023-04-18T20:11:33.542Z,4.90
2023-04-18T20:14:04.567Z,5.35
2023-04-18T20:16:34.688Z,5.10
2023-04-18T20:19:05.796Z,4.55
2023-04-18T20:21:35.845Z,4.72
2023-04-18T20:24:06.967Z,5.22
2023-04-18T20:26:39.316Z,4.03
2023-04-18T20:29:09.075Z,4.65
2023-04-18T20:31:42.428Z,4.28
2023-04-18T20:34:12.538Z,4.78
2023-04-18T20:36:42.867Z,4.65
2023-04-18T20:39:12.991Z,5.85
2023-04-18T20:41:47.411Z,3.80
2023-04-18T20:44:19.177Z,5.82
2023-04-18T20:46:49.040Z,5.88
2023-04-18T20:49:18.996Z,7.78
2023-04-18T20:51:48.739Z,8.95
2023-04-18T20:54:18.421Z,5.07
2023-04-18T20:56:50.657Z,5.25
2023-04-18T20:59:20.299Z,4.15
2023-04-18T21:01:50.062Z,4.68
2023-04-18T21:04:19.996Z,4.38
2023-04-18T21:06:50.014Z,5.22
2023-04-18T21:09:19.816Z,3.65
2023-04-18T21:11:52.027Z,4.90
2023-04-18T21:14:21.714Z,4.57
2023-04-18T21:16:51.372Z,6.20
2023-04-18T21:19:21.015Z,4.82
2023-04-18T21:21:50.776Z,3.92
2023-04-18T21:24:20.623Z,4.50
2023-04-18T21:26:52.854Z,5.57
2023-04-18T21:29:22.566Z,6.15
2023-04-18T21:31:52.564Z,4.07
2023-04-18T21:34:22.252Z,4.63
2023-04-18T21:36:51.909Z,4.47
2023-04-18T21:39:21.556Z,4.38
2023-04-18T21:41:53.826Z,4.38
2023-04-18T21:44:23.526Z,4.50
2023-04-18T21:46:53.194Z,4.75
2023-04-18T21:49:22.906Z,5.20
2023-04-18T21:51:52.601Z,5.20
2023-04-18T21:54:22.279Z,5.43
2023-04-18T21:56:54.541Z,5.18
2023-04-18T21:59:24.210Z,6.03
2023-04-18T22:01:53.872Z,7.70
2023-04-18T22:04:26.529Z,6.47
2023-04-18T22:06:57.001Z,4.65
2023-04-18T22:09:26.643Z,5.15
2023-04-18T22:11:59.715Z,5.63
2023-04-18T22:14:29.390Z,4.10
2023-04-18T22:16:59.477Z,5.03
2023-04-18T22:19:29.655Z,5.53
2023-04-18T22:21:59.375Z,5.10
2023-04-18T22:24:29.045Z,3.83
2023-04-18T22:27:02.926Z,6.50
2023-04-18T22:29:32.577Z,4.70
2023-04-18T22:32:02.217Z,4.70
2023-04-18T22:34:31.888Z,5.47
2023-04-18T22:37:01.607Z,4.07
2023-04-18T22:39:31.408Z,4.65
2023-04-18T22:42:03.704Z,6.22
2023-04-18T22:44:33.437Z,4.30
2023-04-18T22:47:03.389Z,4.80
2023-04-18T22:49:33.205Z,6.72
2023-04-18T22:52:02.892Z,3.65
2023-04-18T22:54:32.686Z,7.80
2023-04-18T22:57:04.950Z,3.88
2023-04-18T22:59:34.619Z,5.10
2023-04-18T23:02:04.457Z,3.90
2023-04-18T23:04:35.322Z,5.68
2023-04-18T23:07:05.325Z,4.38
2023-04-18T23:09:36.182Z,4.85
2023-04-18T23:12:08.760Z,4.65
2023-04-18T23:14:39.050Z,5.05
2023-04-18T23:17:08.712Z,6.90
2023-04-18T23:19:38.431Z,5.50
2023-04-18T23:22:08.114Z,4.78
2023-04-18T23:24:37.953Z,3.90
2023-04-18T23:27:10.232Z,4.68
2023-04-18T23:29:40.738Z,6.38
2023-04-18T23:32:10.515Z,5.60
2023-04-18T23:34:40.215Z,8.00
2023-04-18T23:37:09.958Z,7.07
2023-04-18T23:39:39.618Z,4.28
2023-04-18T23:42:11.913Z,6.22
2023-04-18T23:44:41.569Z,5.65
2023-04-18T23:47:11.499Z,5.65
2023-04-18T23:49:41.170Z,5.07
2023-04-18T23:52:10.913Z,5.65
2023-04-18T23:54:41.279Z,7.75
2023-04-18T23:57:13.514Z,6.05
2023-04-18T23:59:43.166Z,6.80
